sensor_id;sensor_type;location;lat;lon;timestamp;temperature;humidity
15656;DHT22;7928;43.614;1.456;2023-08-06T00:01:04;18.70;99.90
15656;DHT22;7928;43.614;1.456;2023-08-06T00:03:31;18.70;99.90
15656;DHT22;7928;43.614;1.456;2023-08-06T00:05:58;18.70;99.90
15656;DHT22;7928;43.614;1.456;2023-08-06T00:08:25;18.70;99.90
15656;DHT22;7928;43.614;1.456;2023-08-06T00:10:53;18.70;99.90
15656;DHT22;7928;43.614;1.456;2023-08-06T00:13:20;18.70;99.90
15656;DHT22;7928;43.614;1.456;2023-08-06T00:15:47;18.70;99.90
15656;DHT22;7928;43.614;1.456;2023-08-06T00:18:14;18.70;99.90
15656;DHT22;7928;43.614;1.456;2023-08-06T00:20:41;18.60;99.90
15656;DHT22;7928;43.614;1.456;2023-08-06T00:23:08;18.60;99.90
15656;DHT22;7928;43.614;1.456;2023-08-06T00:25:36;18.70;99.90
15656;DHT22;7928;43.614;1.456;2023-08-06T00:28:04;18.60;99.90
15656;DHT22;7928;43.614;1.456;2023-08-06T00:30:31;18.70;99.90
15656;DHT22;7928;43.614;1.456;2023-08-06T00:32:58;18.60;99.90
15656;DHT22;7928;43.614;1.456;2023-08-06T00:35:25;18.60;99.90
15656;DHT22;7928;43.614;1.456;2023-08-06T00:37:52;18.60;99.90
15656;DHT22;7928;43.614;1.456;2023-08-06T00:40:20;18.60;99.90
15656;DHT22;7928;43.614;1.456;2023-08-06T00:42:48;18.60;99.90
15656;DHT22;7928;43.614;1.456;2023-08-06T00:45:17;18.60;99.90
15656;DHT22;7928;43.614;1.456;2023-08-06T00:47:44;18.60;99.90
15656;DHT22;7928;43.614;1.456;2023-08-06T00:50:11;18.50;99.90
15656;DHT22;7928;43.614;1.456;2023-08-06T00:52:38;18.50;99.90
15656;DHT22;7928;43.614;1.456;2023-08-06T00:55:06;18.50;99.90
15656;DHT22;7928;43.614;1.456;2023-08-06T00:57:33;18.50;99.90
15656;DHT22;7928;43.614;1.456;2023-08-06T01:00:01;18.50;99.90
15656;DHT22;7928;43.614;1.456;2023-08-06T01:02:31;18.40;99.90
15656;DHT22;7928;43.614;1.456;2023-08-06T01:04:58;18.40;99.90
15656;DHT22;7928;43.614;1.456;2023-08-06T01:07:37;18.40;99.90
15656;DHT22;7928;43.614;1.456;2023-08-06T01:10:25;18.30;99.90
15656;DHT22;7928;43.614;1.456;2023-08-06T01:13:02;18.30;99.90
15656;DHT22;7928;43.614;1.456;2023-08-06T01:15:35;18.30;99.90
15656;DHT22;7928;43.614;1.456;2023-08-06T01:18:05;18.30;99.90
15656;DHT22;7928;43.614;1.456;2023-08-06T01:20:33;18.30;99.90
15656;DHT22;7928;43.614;1.456;2023-08-06T01:23:00;18.30;99.90
15656;DHT22;7928;43.614;1.456;2023-08-06T01:25:32;18.30;99.90
15656;DHT22;7928;43.614;1.456;2023-08-06T01:28:04;18.30;99.90
15656;DHT22;7928;43.614;1.456;2023-08-06T01:30:34;18.30;99.90
15656;DHT22;7928;43.614;1.456;2023-08-06T01:33:10;18.40;99.90
15656;DHT22;7928;43.614;1.456;2023-08-06T01:35:42;18.40;99.90
15656;DHT22;7928;43.614;1.456;2023-08-06T01:38:09;18.40;99.90
15656;DHT22;7928;43.614;1.456;2023-08-06T01:40:36;18.30;99.90
15656;DHT22;7928;43.614;1.456;2023-08-06T01:43:03;18.40;99.90
15656;DHT22;7928;43.614;1.456;2023-08-06T01:45:30;18.40;99.90
15656;DHT22;7928;43.614;1.456;2023-08-06T01:47:57;18.40;99.90
15656;DHT22;7928;43.614;1.456;2023-08-06T01:50:24;18.40;99.90
15656;DHT22;7928;43.614;1.456;2023-08-06T01:52:52;18.40;99.90
15656;DHT22;7928;43.614;1.456;2023-08-06T01:55:19;18.40;99.90
15656;DHT22;7928;43.614;1.456;2023-08-06T01:57:46;18.40;99.90
15656;DHT22;7928;43.614;1.456;2023-08-06T02:00:14;18.40;99.90
15656;DHT22;7928;43.614;1.456;2023-08-06T02:02:40;18.50;99.90
15656;DHT22;7928;43.614;1.456;2023-08-06T02:05:07;18.40;99.90
15656;DHT22;7928;43.614;1.456;2023-08-06T02:07:34;18.40;99.90
15656;DHT22;7928;43.614;1.456;2023-08-06T02:10:03;18.40;99.90
15656;DHT22;7928;43.614;1.456;2023-08-06T02:12:30;18.40;99.90
15656;DHT22;7928;43.614;1.456;2023-08-06T02:14:57;18.40;99.90
15656;DHT22;7928;43.614;1.456;2023-08-06T02:17:24;18.30;99.90
15656;DHT22;7928;43.614;1.456;2023-08-06T02:19:51;18.30;99.90
15656;DHT22;7928;43.614;1.456;2023-08-06T02:22:18;18.30;99.90
15656;DHT22;7928;43.614;1.456;2023-08-06T02:24:45;18.40;99.90
15656;DHT22;7928;43.614;1.456;2023-08-06T02:27:13;18.40;99.90
15656;DHT22;7928;43.614;1.456;2023-08-06T02:29:40;18.40;99.90
15656;DHT22;7928;43.614;1.456;2023-08-06T02:32:08;18.40;99.90
15656;DHT22;7928;43.614;1.456;2023-08-06T02:34:35;18.30;99.90
15656;DHT22;7928;43.614;1.456;2023-08-06T02:37:02;18.30;99.90
15656;DHT22;7928;43.614;1.456;2023-08-06T02:39:29;18.30;99.90
15656;DHT22;7928;43.614;1.456;2023-08-06T02:41:55;18.30;99.90
15656;DHT22;7928;43.614;1.456;2023-08-06T02:44:27;18.30;99.90
15656;DHT22;7928;43.614;1.456;2023-08-06T02:46:54;18.30;99.90
15656;DHT22;7928;43.614;1.456;2023-08-06T02:49:21;18.30;99.90
15656;DHT22;7928;43.614;1.456;2023-08-06T02:51:48;18.30;99.90
15656;DHT22;7928;43.614;1.456;2023-08-06T02:54:15;18.20;99.90
15656;DHT22;7928;43.614;1.456;2023-08-06T02:56:43;18.10;99.90
15656;DHT22;7928;43.614;1.456;2023-08-06T02:59:10;18.10;99.90
15656;DHT22;7928;43.614;1.456;2023-08-06T03:01:39;18.10;99.90
15656;DHT22;7928;43.614;1.456;2023-08-06T03:04:06;18.10;99.90
15656;DHT22;7928;43.614;1.456;2023-08-06T03:06:33;18.10;99.90
15656;DHT22;7928;43.614;1.456;2023-08-06T03:09:00;18.20;99.90
15656;DHT22;7928;43.614;1.456;2023-08-06T03:11:27;18.20;99.90
15656;DHT22;7928;43.614;1.456;2023-08-06T03:13:54;18.20;99.90
15656;DHT22;7928;43.614;1.456;2023-08-06T03:16:21;18.10;99.90
15656;DHT22;7928;43.614;1.456;2023-08-06T03:18:49;18.10;99.90
15656;DHT22;7928;43.614;1.456;2023-08-06T03:21:16;18.10;99.90
15656;DHT22;7928;43.614;1.456;2023-08-06T03:23:43;18.20;99.90
15656;DHT22;7928;43.614;1.456;2023-08-06T03:26:13;18.20;99.90
15656;DHT22;7928;43.614;1.456;2023-08-06T03:28:40;18.20;99.90
15656;DHT22;7928;43.614;1.456;2023-08-06T03:31:07;18.20;99.90
15656;DHT22;7928;43.614;1.456;2023-08-06T03:33:34;18.20;99.90
15656;DHT22;7928;43.614;1.456;2023-08-06T03:36:03;18.20;99.90
15656;DHT22;7928;43.614;1.456;2023-08-06T03:38:30;18.10;99.90
15656;DHT22;7928;43.614;1.456;2023-08-06T03:40:57;18.10;99.90
15656;DHT22;7928;43.614;1.456;2023-08-06T03:43:24;18.10;99.90
15656;DHT22;7928;43.614;1.456;2023-08-06T03:45:51;18.10;99.90
15656;DHT22;7928;43.614;1.456;2023-08-06T03:48:18;18.10;99.90
15656;DHT22;7928;43.614;1.456;2023-08-06T03:50:45;18.20;99.90
15656;DHT22;7928;43.614;1.456;2023-08-06T03:53:13;18.20;99.90
15656;DHT22;7928;43.614;1.456;2023-08-06T03:55:40;18.20;99.90
15656;DHT22;7928;43.614;1.456;2023-08-06T03:58:07;18.20;99.90
15656;DHT22;7928;43.614;1.456;2023-08-06T04:00:34;18.20;99.90
15656;DHT22;7928;43.614;1.456;2023-08-06T04:03:01;18.20;99.90
15656;DHT22;7928;43.614;1.456;2023-08-06T04:05:31;18.20;99.90
15656;DHT22;7928;43.614;1.456;2023-08-06T04:07:58;18.20;99.90
15656;DHT22;7928;43.614;1.456;2023-08-06T04:10:27;18.20;99.90
15656;DHT22;7928;43.614;1.456;2023-08-06T04:12:54;18.20;99.90
15656;DHT22;7928;43.614;1.456;2023-08-06T04:15:21;18.20;99.90
15656;DHT22;7928;43.614;1.456;2023-08-06T04:17:48;18.10;99.90
15656;DHT22;7928;43.614;1.456;2023-08-06T04:20:15;18.20;99.90
15656;DHT22;7928;43.614;1.456;2023-08-06T04:22:42;18.20;99.90
15656;DHT22;7928;43.614;1.456;2023-08-06T04:25:09;18.20;99.90
15656;DHT22;7928;43.614;1.456;2023-08-06T04:27:38;18.10;99.90
15656;DHT22;7928;43.614;1.456;2023-08-06T04:30:07;18.10;99.90
15656;DHT22;7928;43.614;1.456;2023-08-06T04:32:34;18.10;99.90
15656;DHT22;7928;43.614;1.456;2023-08-06T04:35:01;18.00;99.90
15656;DHT22;7928;43.614;1.456;2023-08-06T04:37:28;18.00;99.90
15656;DHT22;7928;43.614;1.456;2023-08-06T04:39:55;17.90;99.90
15656;DHT22;7928;43.614;1.456;2023-08-06T04:42:22;17.90;99.90
15656;DHT22;7928;43.614;1.456;2023-08-06T04:44:51;17.90;99.90
15656;DHT22;7928;43.614;1.456;2023-08-06T04:47:18;17.90;99.90
15656;DHT22;7928;43.614;1.456;2023-08-06T04:49:45;17.80;99.90
15656;DHT22;7928;43.614;1.456;2023-08-06T04:52:12;17.80;99.90
15656;DHT22;7928;43.614;1.456;2023-08-06T04:54:39;17.90;99.90
15656;DHT22;7928;43.614;1.456;2023-08-06T04:57:06;17.90;99.90
15656;DHT22;7928;43.614;1.456;2023-08-06T04:59:33;17.90;99.90
15656;DHT22;7928;43.614;1.456;2023-08-06T05:02:01;17.90;99.90
15656;DHT22;7928;43.614;1.456;2023-08-06T05:04:28;17.90;99.90
15656;DHT22;7928;43.614;1.456;2023-08-06T05:06:55;18.00;99.90
15656;DHT22;7928;43.614;1.456;2023-08-06T05:09:22;18.00;99.90
15656;DHT22;7928;43.614;1.456;2023-08-06T05:11:49;18.20;99.90
15656;DHT22;7928;43.614;1.456;2023-08-06T05:14:16;18.20;99.90
15656;DHT22;7928;43.614;1.456;2023-08-06T05:16:43;18.30;99.90
15656;DHT22;7928;43.614;1.456;2023-08-06T05:19:12;18.30;99.90
15656;DHT22;7928;43.614;1.456;2023-08-06T05:21:39;18.30;99.90
15656;DHT22;7928;43.614;1.456;2023-08-06T05:24:06;18.20;99.90
15656;DHT22;7928;43.614;1.456;2023-08-06T05:26:33;18.10;99.90
15656;DHT22;7928;43.614;1.456;2023-08-06T05:29:00;18.20;99.90
15656;DHT22;7928;43.614;1.456;2023-08-06T05:31:27;18.10;99.90
15656;DHT22;7928;43.614;1.456;2023-08-06T05:33:55;18.10;99.90
15656;DHT22;7928;43.614;1.456;2023-08-06T05:36:23;18.20;99.90
15656;DHT22;7928;43.614;1.456;2023-08-06T05:38:50;18.20;99.90
15656;DHT22;7928;43.614;1.456;2023-08-06T05:41:17;18.30;99.90
15656;DHT22;7928;43.614;1.456;2023-08-06T05:43:45;18.30;99.90
15656;DHT22;7928;43.614;1.456;2023-08-06T05:46:12;18.30;99.90
15656;DHT22;7928;43.614;1.456;2023-08-06T05:48:39;18.30;99.90
15656;DHT22;7928;43.614;1.456;2023-08-06T05:51:06;18.30;99.90
15656;DHT22;7928;43.614;1.456;2023-08-06T05:53:34;18.20;99.90
15656;DHT22;7928;43.614;1.456;2023-08-06T05:56:01;18.30;99.90
15656;DHT22;7928;43.614;1.456;2023-08-06T05:58:28;18.30;99.90
15656;DHT22;7928;43.614;1.456;2023-08-06T06:00:56;18.30;99.90
15656;DHT22;7928;43.614;1.456;2023-08-06T06:03:23;18.30;99.90
15656;DHT22;7928;43.614;1.456;2023-08-06T06:05:50;18.40;99.90
15656;DHT22;7928;43.614;1.456;2023-08-06T06:08:16;18.40;99.90
15656;DHT22;7928;43.614;1.456;2023-08-06T06:10:45;18.30;99.90
15656;DHT22;7928;43.614;1.456;2023-08-06T06:13:12;18.30;99.90
15656;DHT22;7928;43.614;1.456;2023-08-06T06:15:39;18.40;99.90
15656;DHT22;7928;43.614;1.456;2023-08-06T06:18:06;18.40;99.90
15656;DHT22;7928;43.614;1.456;2023-08-06T06:20:33;18.30;99.90
15656;DHT22;7928;43.614;1.456;2023-08-06T06:23:00;18.40;99.90
15656;DHT22;7928;43.614;1.456;2023-08-06T06:25:27;18.30;99.90
15656;DHT22;7928;43.614;1.456;2023-08-06T06:27:55;18.40;99.90
15656;DHT22;7928;43.614;1.456;2023-08-06T06:30:22;18.50;99.90
15656;DHT22;7928;43.614;1.456;2023-08-06T06:32:49;18.50;99.90
15656;DHT22;7928;43.614;1.456;2023-08-06T06:35:16;18.50;99.90
15656;DHT22;7928;43.614;1.456;2023-08-06T06:37:43;18.60;99.90
15656;DHT22;7928;43.614;1.456;2023-08-06T06:40:11;18.60;99.90
15656;DHT22;7928;43.614;1.456;2023-08-06T06:42:37;18.60;99.90
15656;DHT22;7928;43.614;1.456;2023-08-06T06:45:07;18.60;99.90
15656;DHT22;7928;43.614;1.456;2023-08-06T06:47:35;18.50;99.90
15656;DHT22;7928;43.614;1.456;2023-08-06T06:50:02;18.70;99.90
15656;DHT22;7928;43.614;1.456;2023-08-06T06:52:29;18.60;99.90
15656;DHT22;7928;43.614;1.456;2023-08-06T06:54:56;18.70;99.90
15656;DHT22;7928;43.614;1.456;2023-08-06T06:57:23;18.80;99.90
15656;DHT22;7928;43.614;1.456;2023-08-06T06:59:50;18.90;99.90
15656;DHT22;7928;43.614;1.456;2023-08-06T07:02:18;19.00;99.90
15656;DHT22;7928;43.614;1.456;2023-08-06T07:04:46;19.20;99.90
15656;DHT22;7928;43.614;1.456;2023-08-06T07:07:12;19.20;99.90
15656;DHT22;7928;43.614;1.456;2023-08-06T07:09:39;19.30;99.90
15656;DHT22;7928;43.614;1.456;2023-08-06T07:12:07;19.30;99.90
15656;DHT22;7928;43.614;1.456;2023-08-06T07:14:34;19.50;99.90
15656;DHT22;7928;43.614;1.456;2023-08-06T07:17:01;19.40;99.90
15656;DHT22;7928;43.614;1.456;2023-08-06T07:19:29;19.50;99.90
15656;DHT22;7928;43.614;1.456;2023-08-06T07:21:56;19.50;99.90
15656;DHT22;7928;43.614;1.456;2023-08-06T07:24:23;19.60;99.90
15656;DHT22;7928;43.614;1.456;2023-08-06T07:26:50;19.50;99.90
15656;DHT22;7928;43.614;1.456;2023-08-06T07:29:18;19.70;99.90
15656;DHT22;7928;43.614;1.456;2023-08-06T07:31:45;19.90;99.90
15656;DHT22;7928;43.614;1.456;2023-08-06T07:34:12;19.70;99.90
15656;DHT22;7928;43.614;1.456;2023-08-06T07:36:42;19.90;99.90
15656;DHT22;7928;43.614;1.456;2023-08-06T07:39:09;19.90;99.90
15656;DHT22;7928;43.614;1.456;2023-08-06T07:41:36;19.80;99.90
15656;DHT22;7928;43.614;1.456;2023-08-06T07:44:04;19.80;99.90
15656;DHT22;7928;43.614;1.456;2023-08-06T07:46:31;20.00;99.90
15656;DHT22;7928;43.614;1.456;2023-08-06T07:48:58;19.90;99.90
15656;DHT22;7928;43.614;1.456;2023-08-06T07:51:25;19.80;99.90
15656;DHT22;7928;43.614;1.456;2023-08-06T07:53:53;19.90;99.90
15656;DHT22;7928;43.614;1.456;2023-08-06T07:56:20;19.90;99.90
15656;DHT22;7928;43.614;1.456;2023-08-06T07:58:47;20.10;99.90
15656;DHT22;7928;43.614;1.456;2023-08-06T08:01:14;20.30;99.90
15656;DHT22;7928;43.614;1.456;2023-08-06T08:03:41;20.20;99.90
15656;DHT22;7928;43.614;1.456;2023-08-06T08:06:08;20.10;99.90
15656;DHT22;7928;43.614;1.456;2023-08-06T08:08:35;20.20;99.90
15656;DHT22;7928;43.614;1.456;2023-08-06T08:11:05;20.30;99.90
15656;DHT22;7928;43.614;1.456;2023-08-06T08:13:33;20.50;99.90
15656;DHT22;7928;43.614;1.456;2023-08-06T08:16:00;20.60;99.90
15656;DHT22;7928;43.614;1.456;2023-08-06T08:18:27;20.60;99.90
15656;DHT22;7928;43.614;1.456;2023-08-06T08:20:55;20.80;99.90
15656;DHT22;7928;43.614;1.456;2023-08-06T08:23:22;20.90;99.90
15656;DHT22;7928;43.614;1.456;2023-08-06T08:25:49;21.00;99.90
15656;DHT22;7928;43.614;1.456;2023-08-06T08:28:18;21.00;99.90
15656;DHT22;7928;43.614;1.456;2023-08-06T08:30:45;21.00;99.90
15656;DHT22;7928;43.614;1.456;2023-08-06T08:33:12;20.70;99.90
15656;DHT22;7928;43.614;1.456;2023-08-06T08:35:39;20.90;99.90
15656;DHT22;7928;43.614;1.456;2023-08-06T08:38:06;21.20;99.90
15656;DHT22;7928;43.614;1.456;2023-08-06T08:40:33;21.50;99.90
15656;DHT22;7928;43.614;1.456;2023-08-06T08:43:03;21.60;99.90
15656;DHT22;7928;43.614;1.456;2023-08-06T08:45:34;21.40;99.90
15656;DHT22;7928;43.614;1.456;2023-08-06T08:48:01;21.40;99.90
15656;DHT22;7928;43.614;1.456;2023-08-06T08:50:28;21.40;99.90
15656;DHT22;7928;43.614;1.456;2023-08-06T08:52:56;21.50;99.90
15656;DHT22;7928;43.614;1.456;2023-08-06T08:55:23;21.70;99.90
15656;DHT22;7928;43.614;1.456;2023-08-06T08:57:51;21.70;99.90
15656;DHT22;7928;43.614;1.456;2023-08-06T09:00:18;21.50;99.90
15656;DHT22;7928;43.614;1.456;2023-08-06T09:02:46;21.70;99.90
15656;DHT22;7928;43.614;1.456;2023-08-06T09:05:14;21.60;99.90
15656;DHT22;7928;43.614;1.456;2023-08-06T09:07:42;21.80;99.90
15656;DHT22;7928;43.614;1.456;2023-08-06T09:10:11;22.10;99.90
15656;DHT22;7928;43.614;1.456;2023-08-06T09:12:39;22.30;99.90
15656;DHT22;7928;43.614;1.456;2023-08-06T09:15:07;22.50;99.90
15656;DHT22;7928;43.614;1.456;2023-08-06T09:17:34;22.50;99.90
15656;DHT22;7928;43.614;1.456;2023-08-06T09:20:11;22.30;99.90
15656;DHT22;7928;43.614;1.456;2023-08-06T09:22:38;22.00;99.90
15656;DHT22;7928;43.614;1.456;2023-08-06T09:25:06;21.80;99.90
15656;DHT22;7928;43.614;1.456;2023-08-06T09:27:35;21.50;99.90
15656;DHT22;7928;43.614;1.456;2023-08-06T09:30:04;21.80;99.90
15656;DHT22;7928;43.614;1.456;2023-08-06T09:32:45;22.10;99.90
15656;DHT22;7928;43.614;1.456;2023-08-06T09:35:16;22.30;99.90
15656;DHT22;7928;43.614;1.456;2023-08-06T09:37:44;22.40;99.90
15656;DHT22;7928;43.614;1.456;2023-08-06T09:40:25;22.70;99.90
15656;DHT22;7928;43.614;1.456;2023-08-06T09:42:52;22.70;99.90
15656;DHT22;7928;43.614;1.456;2023-08-06T09:45:19;22.70;99.90
15656;DHT22;7928;43.614;1.456;2023-08-06T09:47:47;22.40;99.90
15656;DHT22;7928;43.614;1.456;2023-08-06T09:50:19;22.40;99.90
15656;DHT22;7928;43.614;1.456;2023-08-06T09:52:47;22.70;99.90
15656;DHT22;7928;43.614;1.456;2023-08-06T09:55:14;23.00;99.90
15656;DHT22;7928;43.614;1.456;2023-08-06T09:57:42;23.30;99.90
15656;DHT22;7928;43.614;1.456;2023-08-06T10:00:10;23.30;99.60
15656;DHT22;7928;43.614;1.456;2023-08-06T10:02:39;23.20;98.90
15656;DHT22;7928;43.614;1.456;2023-08-06T10:05:07;23.30;98.80
15656;DHT22;7928;43.614;1.456;2023-08-06T10:07:36;23.60;98.30
15656;DHT22;7928;43.614;1.456;2023-08-06T10:10:05;23.80;98.30
15656;DHT22;7928;43.614;1.456;2023-08-06T10:12:34;23.90;98.10
15656;DHT22;7928;43.614;1.456;2023-08-06T10:15:06;24.20;97.90
15656;DHT22;7928;43.614;1.456;2023-08-06T10:17:36;23.90;97.20
15656;DHT22;7928;43.614;1.456;2023-08-06T10:20:05;23.80;97.30
15656;DHT22;7928;43.614;1.456;2023-08-06T10:22:34;23.80;96.90
15656;DHT22;7928;43.614;1.456;2023-08-06T10:25:02;24.20;97.00
15656;DHT22;7928;43.614;1.456;2023-08-06T10:27:33;24.40;96.30
15656;DHT22;7928;43.614;1.456;2023-08-06T10:30:22;24.50;95.60
15656;DHT22;7928;43.614;1.456;2023-08-06T10:32:50;24.40;96.00
15656;DHT22;7928;43.614;1.456;2023-08-06T10:35:31;24.30;97.20
15656;DHT22;7928;43.614;1.456;2023-08-06T10:38:03;24.50;97.40
15656;DHT22;7928;43.614;1.456;2023-08-06T10:40:31;24.50;98.60
15656;DHT22;7928;43.614;1.456;2023-08-06T10:42:59;24.60;99.40
15656;DHT22;7928;43.614;1.456;2023-08-06T10:45:26;24.30;94.80
15656;DHT22;7928;43.614;1.456;2023-08-06T10:47:55;24.40;96.40
15656;DHT22;7928;43.614;1.456;2023-08-06T10:50:23;24.40;95.70
15656;DHT22;7928;43.614;1.456;2023-08-06T10:52:50;24.70;95.10
15656;DHT22;7928;43.614;1.456;2023-08-06T10:55:26;25.00;95.70
15656;DHT22;7928;43.614;1.456;2023-08-06T10:57:54;24.90;95.10
15656;DHT22;7928;43.614;1.456;2023-08-06T11:00:22;25.40;95.10
15656;DHT22;7928;43.614;1.456;2023-08-06T11:02:51;25.80;95.10
15656;DHT22;7928;43.614;1.456;2023-08-06T11:05:19;26.00;94.70
15656;DHT22;7928;43.614;1.456;2023-08-06T11:07:45;25.90;94.30
15656;DHT22;7928;43.614;1.456;2023-08-06T11:10:13;25.40;93.10
15656;DHT22;7928;43.614;1.456;2023-08-06T11:12:42;25.60;93.30
15656;DHT22;7928;43.614;1.456;2023-08-06T11:15:10;26.50;93.30
15656;DHT22;7928;43.614;1.456;2023-08-06T11:17:39;26.60;93.40
15656;DHT22;7928;43.614;1.456;2023-08-06T11:20:07;26.30;92.50
15656;DHT22;7928;43.614;1.456;2023-08-06T11:22:36;26.40;91.10
15656;DHT22;7928;43.614;1.456;2023-08-06T11:25:04;26.10;92.80
15656;DHT22;7928;43.614;1.456;2023-08-06T11:27:31;26.00;93.50
15656;DHT22;7928;43.614;1.456;2023-08-06T11:29:59;25.90;92.20
15656;DHT22;7928;43.614;1.456;2023-08-06T11:32:26;26.60;91.70
15656;DHT22;7928;43.614;1.456;2023-08-06T11:34:54;26.80;92.50
15656;DHT22;7928;43.614;1.456;2023-08-06T11:37:22;27.00;92.10
15656;DHT22;7928;43.614;1.456;2023-08-06T11:39:51;27.50;90.30
15656;DHT22;7928;43.614;1.456;2023-08-06T11:42:18;27.90;90.80
15656;DHT22;7928;43.614;1.456;2023-08-06T11:44:45;27.10;91.10
15656;DHT22;7928;43.614;1.456;2023-08-06T11:47:15;26.80;90.10
15656;DHT22;7928;43.614;1.456;2023-08-06T11:49:44;26.70;87.50
15656;DHT22;7928;43.614;1.456;2023-08-06T11:52:13;26.90;89.80
15656;DHT22;7928;43.614;1.456;2023-08-06T11:54:40;26.40;89.90
15656;DHT22;7928;43.614;1.456;2023-08-06T11:57:08;25.80;89.70
15656;DHT22;7928;43.614;1.456;2023-08-06T11:59:35;26.20;90.80
15656;DHT22;7928;43.614;1.456;2023-08-06T12:02:04;27.40;90.70
15656;DHT22;7928;43.614;1.456;2023-08-06T12:04:58;27.70;90.60
15656;DHT22;7928;43.614;1.456;2023-08-06T12:07:27;27.60;88.10
15656;DHT22;7928;43.614;1.456;2023-08-06T12:09:54;26.90;88.00
15656;DHT22;7928;43.614;1.456;2023-08-06T12:12:21;27.20;85.10
15656;DHT22;7928;43.614;1.456;2023-08-06T12:14:47;28.30;85.00
15656;DHT22;7928;43.614;1.456;2023-08-06T12:17:14;27.90;83.20
15656;DHT22;7928;43.614;1.456;2023-08-06T12:19:44;27.40;84.20
15656;DHT22;7928;43.614;1.456;2023-08-06T12:22:13;28.80;82.50
15656;DHT22;7928;43.614;1.456;2023-08-06T12:24:40;29.20;82.20
15656;DHT22;7928;43.614;1.456;2023-08-06T12:27:08;30.40;80.00
15656;DHT22;7928;43.614;1.456;2023-08-06T12:29:35;30.20;77.70
15656;DHT22;7928;43.614;1.456;2023-08-06T12:32:02;28.90;80.50
15656;DHT22;7928;43.614;1.456;2023-08-06T12:34:30;28.20;85.00
15656;DHT22;7928;43.614;1.456;2023-08-06T12:36:58;28.30;85.10
15656;DHT22;7928;43.614;1.456;2023-08-06T12:39:25;27.80;82.80
15656;DHT22;7928;43.614;1.456;2023-08-06T12:41:54;28.80;83.00
15656;DHT22;7928;43.614;1.456;2023-08-06T12:44:23;29.30;80.10
15656;DHT22;7928;43.614;1.456;2023-08-06T12:46:50;28.40;78.10
15656;DHT22;7928;43.614;1.456;2023-08-06T12:49:17;28.40;81.20
15656;DHT22;7928;43.614;1.456;2023-08-06T12:51:44;28.10;78.30
15656;DHT22;7928;43.614;1.456;2023-08-06T12:54:12;29.20;77.20
15656;DHT22;7928;43.614;1.456;2023-08-06T12:56:39;31.00;75.70
15656;DHT22;7928;43.614;1.456;2023-08-06T12:59:06;31.10;73.20
15656;DHT22;7928;43.614;1.456;2023-08-06T13:01:33;29.80;74.50
15656;DHT22;7928;43.614;1.456;2023-08-06T13:04:00;29.50;75.50
15656;DHT22;7928;43.614;1.456;2023-08-06T13:06:27;29.30;78.60
15656;DHT22;7928;43.614;1.456;2023-08-06T13:08:54;29.70;78.50
15656;DHT22;7928;43.614;1.456;2023-08-06T13:11:22;29.70;76.90
15656;DHT22;7928;43.614;1.456;2023-08-06T13:13:49;28.60;75.70
15656;DHT22;7928;43.614;1.456;2023-08-06T13:16:16;27.70;79.10
15656;DHT22;7928;43.614;1.456;2023-08-06T13:18:43;27.50;80.00
15656;DHT22;7928;43.614;1.456;2023-08-06T13:21:10;28.80;78.90
15656;DHT22;7928;43.614;1.456;2023-08-06T13:23:37;29.80;78.30
15656;DHT22;7928;43.614;1.456;2023-08-06T13:26:04;30.20;75.70
15656;DHT22;7928;43.614;1.456;2023-08-06T13:28:32;29.20;75.50
15656;DHT22;7928;43.614;1.456;2023-08-06T13:30:59;28.10;76.40
15656;DHT22;7928;43.614;1.456;2023-08-06T13:33:26;27.80;78.70
15656;DHT22;7928;43.614;1.456;2023-08-06T13:35:53;29.10;76.20
15656;DHT22;7928;43.614;1.456;2023-08-06T13:38:20;28.50;75.80
15656;DHT22;7928;43.614;1.456;2023-08-06T13:40:48;28.30;76.90
15656;DHT22;7928;43.614;1.456;2023-08-06T13:43:15;28.20;77.70
15656;DHT22;7928;43.614;1.456;2023-08-06T13:45:46;28.00;79.40
15656;DHT22;7928;43.614;1.456;2023-08-06T13:48:13;28.00;79.70
15656;DHT22;7928;43.614;1.456;2023-08-06T13:50:39;28.20;78.50
15656;DHT22;7928;43.614;1.456;2023-08-06T13:53:06;28.80;77.40
15656;DHT22;7928;43.614;1.456;2023-08-06T13:55:33;29.90;76.00
15656;DHT22;7928;43.614;1.456;2023-08-06T13:58:00;30.90;75.90
15656;DHT22;7928;43.614;1.456;2023-08-06T14:00:27;30.10;74.70
15656;DHT22;7928;43.614;1.456;2023-08-06T14:02:56;30.30;75.00
15656;DHT22;7928;43.614;1.456;2023-08-06T14:05:22;30.80;74.20
15656;DHT22;7928;43.614;1.456;2023-08-06T14:07:49;31.00;73.80
15656;DHT22;7928;43.614;1.456;2023-08-06T14:10:17;31.10;71.40
15656;DHT22;7928;43.614;1.456;2023-08-06T14:12:44;31.20;72.80
15656;DHT22;7928;43.614;1.456;2023-08-06T14:15:11;31.20;72.50
15656;DHT22;7928;43.614;1.456;2023-08-06T14:17:38;32.20;72.90
15656;DHT22;7928;43.614;1.456;2023-08-06T14:20:08;32.80;71.00
15656;DHT22;7928;43.614;1.456;2023-08-06T14:22:37;33.50;71.70
15656;DHT22;7928;43.614;1.456;2023-08-06T14:25:05;32.90;68.00
15656;DHT22;7928;43.614;1.456;2023-08-06T14:27:32;31.30;71.30
15656;DHT22;7928;43.614;1.456;2023-08-06T14:29:59;30.40;71.80
15656;DHT22;7928;43.614;1.456;2023-08-06T14:32:26;29.60;73.80
15656;DHT22;7928;43.614;1.456;2023-08-06T14:34:53;28.70;73.80
15656;DHT22;7928;43.614;1.456;2023-08-06T14:37:22;28.60;74.70
15656;DHT22;7928;43.614;1.456;2023-08-06T14:39:49;29.40;73.20
15656;DHT22;7928;43.614;1.456;2023-08-06T14:42:15;29.40;72.90
15656;DHT22;7928;43.614;1.456;2023-08-06T14:44:43;29.10;71.40
15656;DHT22;7928;43.614;1.456;2023-08-06T14:47:10;28.60;74.20
15656;DHT22;7928;43.614;1.456;2023-08-06T14:49:37;28.70;74.70
15656;DHT22;7928;43.614;1.456;2023-08-06T14:52:06;28.30;75.20
15656;DHT22;7928;43.614;1.456;2023-08-06T14:54:34;28.40;76.10
15656;DHT22;7928;43.614;1.456;2023-08-06T14:57:01;29.90;73.00
15656;DHT22;7928;43.614;1.456;2023-08-06T14:59:28;30.30;73.80
15656;DHT22;7928;43.614;1.456;2023-08-06T15:01:55;29.70;71.50
15656;DHT22;7928;43.614;1.456;2023-08-06T15:04:22;29.20;72.10
15656;DHT22;7928;43.614;1.456;2023-08-06T15:06:50;28.70;73.10
15656;DHT22;7928;43.614;1.456;2023-08-06T15:09:17;29.00;72.40
15656;DHT22;7928;43.614;1.456;2023-08-06T15:11:45;29.60;71.10
15656;DHT22;7928;43.614;1.456;2023-08-06T15:14:12;28.90;71.50
15656;DHT22;7928;43.614;1.456;2023-08-06T15:16:40;27.80;72.80
15656;DHT22;7928;43.614;1.456;2023-08-06T15:19:07;27.80;74.50
15656;DHT22;7928;43.614;1.456;2023-08-06T15:21:34;27.70;75.90
15656;DHT22;7928;43.614;1.456;2023-08-06T15:24:01;28.10;75.80
15656;DHT22;7928;43.614;1.456;2023-08-06T15:26:28;29.40;73.70
15656;DHT22;7928;43.614;1.456;2023-08-06T15:28:56;30.70;71.10
15656;DHT22;7928;43.614;1.456;2023-08-06T15:31:23;31.50;72.00
15656;DHT22;7928;43.614;1.456;2023-08-06T15:33:50;32.30;68.70
15656;DHT22;7928;43.614;1.456;2023-08-06T15:36:17;32.90;69.80
15656;DHT22;7928;43.614;1.456;2023-08-06T15:38:44;32.10;69.40
15656;DHT22;7928;43.614;1.456;2023-08-06T15:41:11;31.20;70.50
15656;DHT22;7928;43.614;1.456;2023-08-06T15:43:38;30.90;69.30
15656;DHT22;7928;43.614;1.456;2023-08-06T15:46:08;30.30;70.80
15656;DHT22;7928;43.614;1.456;2023-08-06T15:48:35;29.70;72.80